createdAt,value
2023-04-26T00:01:44.081Z,6.95
2023-04-26T00:04:20.750Z,6.97
2023-04-26T00:06:54.338Z,7.03
2023-04-26T00:09:22.190Z,7.13
2023-04-26T00:12:16.688Z,7.00
2023-04-26T00:14:51.343Z,7.02
2023-04-26T00:17:19.095Z,6.73
2023-04-26T00:19:58.888Z,6.73
2023-04-26T00:22:34.772Z,6.82
2023-04-26T00:25:19.843Z,6.84
2023-04-26T00:27:53.552Z,6.78
2023-04-26T00:30:23.110Z,6.71
2023-04-26T00:32:53.053Z,6.76
2023-04-26T00:35:20.417Z,6.85
2023-04-26T00:37:49.474Z,6.65
2023-04-26T00:40:20.614Z,6.61
2023-04-26T00:42:49.975Z,6.66
2023-04-26T00:45:19.805Z,6.62
2023-04-26T00:47:47.651Z,6.47
2023-04-26T00:50:14.589Z,6.65
2023-04-26T00:52:45.729Z,6.73
2023-04-26T00:55:15.303Z,6.73
2023-04-26T00:57:42.237Z,6.80
2023-04-26T01:00:10.204Z,6.85
2023-04-26T01:02:37.779Z,6.78
2023-04-26T01:05:06.399Z,6.64
2023-04-26T01:07:36.893Z,6.87
2023-04-26T01:10:09.383Z,6.89
2023-04-26T01:12:40.757Z,6.87
2023-04-26T01:15:11.487Z,6.85
2023-04-26T01:17:40.712Z,6.80
2023-04-26T01:20:10.464Z,6.72
2023-04-26T01:22:39.987Z,6.77
2023-04-26T01:25:10.118Z,6.89
2023-04-26T01:27:36.979Z,6.89
2023-04-26T01:30:09.717Z,6.98
2023-04-26T01:32:36.784Z,6.77
2023-04-26T01:35:07.324Z,6.87
2023-04-26T01:37:34.325Z,6.91
2023-04-26T01:40:07.127Z,6.51
2023-04-26T01:42:34.065Z,6.54
2023-04-26T01:45:01.000Z,6.55
2023-04-26T01:47:27.916Z,6.63
2023-04-26T01:49:54.839Z,6.68
2023-04-26T01:52:22.988Z,6.65
2023-04-26T01:54:49.906Z,6.36
2023-04-26T01:57:16.906Z,6.55
2023-04-26T01:59:43.744Z,6.47
2023-04-26T02:02:10.684Z,6.58
2023-04-26T02:04:37.846Z,6.41
2023-04-26T02:07:09.538Z,6.31
2023-04-26T02:09:38.898Z,6.24
2023-04-26T02:12:08.518Z,6.12
2023-04-26T02:14:35.346Z,6.12
2023-04-26T02:17:06.346Z,6.26
2023-04-26T02:19:33.195Z,6.18
2023-04-26T02:22:00.076Z,6.29
2023-04-26T02:24:26.999Z,6.41
2023-04-26T02:26:54.474Z,6.30
2023-04-26T02:29:35.926Z,6.31
2023-04-26T02:32:09.342Z,6.41
2023-04-26T02:34:38.822Z,6.50
2023-04-26T02:37:05.707Z,6.65
2023-04-26T02:39:32.675Z,6.92
2023-04-26T02:41:59.613Z,7.18
2023-04-26T02:44:30.997Z,7.35
2023-04-26T02:46:58.358Z,7.07
2023-04-26T02:49:27.724Z,6.84
2023-04-26T02:51:54.611Z,6.82
2023-04-26T02:54:21.514Z,6.62
2023-04-26T02:56:55.456Z,6.61
2023-04-26T02:59:22.312Z,6.58
2023-04-26T03:01:51.488Z,6.53
2023-04-26T03:04:18.732Z,6.53
2023-04-26T03:06:45.740Z,6.56
2023-04-26T03:09:17.754Z,6.61
2023-04-26T03:11:44.835Z,6.65
2023-04-26T03:14:11.726Z,6.52
2023-04-26T03:16:43.243Z,6.74
2023-04-26T03:19:10.289Z,6.94
2023-04-26T03:21:37.522Z,7.01
2023-04-26T03:24:07.722Z,6.97
2023-04-26T03:26:37.220Z,6.74
2023-04-26T03:29:04.992Z,6.91
2023-04-26T03:31:34.987Z,7.02
2023-04-26T03:34:04.179Z,7.07
2023-04-26T03:36:36.191Z,6.97
2023-04-26T03:39:06.224Z,6.90
2023-04-26T03:41:33.609Z,6.99
2023-04-26T03:44:00.575Z,6.84
2023-04-26T03:46:27.607Z,6.74
2023-04-26T03:48:54.847Z,6.76
2023-04-26T03:51:22.124Z,6.75
2023-04-26T03:53:51.788Z,6.76
2023-04-26T03:56:21.753Z,6.73
2023-04-26T03:58:51.049Z,6.80
2023-04-26T04:01:18.801Z,6.89
2023-04-26T04:03:48.437Z,7.02
2023-04-26T04:06:16.784Z,6.92
2023-04-26T04:08:45.898Z,6.89
2023-04-26T04:11:16.677Z,6.55
2023-04-26T04:13:48.853Z,6.70
2023-04-26T04:16:17.895Z,6.75
2023-04-26T04:18:49.753Z,6.79
2023-04-26T04:21:16.807Z,6.99
2023-04-26T04:23:44.382Z,7.20
2023-04-26T04:26:12.687Z,7.10
2023-04-26T04:28:41.828Z,7.02
2023-04-26T04:31:13.102Z,7.20
2023-04-26T04:33:40.705Z,7.26
2023-04-26T04:36:08.359Z,7.00
2023-04-26T04:38:36.123Z,6.71
2023-04-26T04:41:05.382Z,6.78
2023-04-26T04:43:34.742Z,6.77
2023-04-26T04:46:06.402Z,6.84
2023-04-26T04:48:38.872Z,6.82
2023-04-26T04:51:08.278Z,7.01
2023-04-26T04:53:35.394Z,7.02
2023-04-26T04:56:02.683Z,7.22
2023-04-26T04:58:31.763Z,7.17
2023-04-26T05:01:01.094Z,6.93
2023-04-26T05:03:28.242Z,7.21
2023-04-26T05:05:55.211Z,7.03
2023-04-26T05:08:24.211Z,7.19
2023-04-26T05:10:51.580Z,7.08
2023-04-26T05:13:18.403Z,7.31
2023-04-26T05:15:45.246Z,7.44
2023-04-26T05:18:14.421Z,7.45
2023-04-26T05:20:41.563Z,7.37
2023-04-26T05:23:10.846Z,7.40
2023-04-26T05:25:40.460Z,7.63
2023-04-26T05:28:12.551Z,7.79
2023-04-26T05:30:39.664Z,7.96
2023-04-26T05:33:06.904Z,7.89
2023-04-26T05:35:36.416Z,7.73
2023-04-26T05:38:03.849Z,7.92
2023-04-26T05:40:32.892Z,8.15
2023-04-26T05:43:02.290Z,8.09
2023-04-26T05:45:29.304Z,8.33
2023-04-26T05:47:56.542Z,8.48
2023-04-26T05:50:25.655Z,8.50
2023-04-26T05:52:54.622Z,8.52
2023-04-26T05:55:21.473Z,8.61
2023-04-26T05:57:50.853Z,8.72
2023-04-26T06:00:20.286Z,8.72
2023-04-26T06:02:49.603Z,9.11
2023-04-26T06:05:17.089Z,9.16
2023-04-26T06:07:48.783Z,8.88
2023-04-26T06:10:15.774Z,8.71
2023-04-26T06:12:42.864Z,8.95
2023-04-26T06:15:10.962Z,9.26
2023-04-26T06:17:37.949Z,9.64
2023-04-26T06:20:05.799Z,9.77
2023-04-26T06:22:32.696Z,9.69
2023-04-26T06:24:59.686Z,9.76
2023-04-26T06:27:31.230Z,9.63
2023-04-26T06:29:58.231Z,9.82
2023-04-26T06:32:25.256Z,9.83
2023-04-26T06:34:56.652Z,9.71
2023-04-26T06:37:23.621Z,9.73
2023-04-26T06:39:50.473Z,9.83
2023-04-26T06:42:17.721Z,9.98
2023-04-26T06:44:44.663Z,9.84
2023-04-26T06:47:14.431Z,9.36
2023-04-26T06:49:41.358Z,9.70
2023-04-26T06:52:09.447Z,9.90
2023-04-26T06:54:46.047Z,9.92
2023-04-26T06:57:21.024Z,9.75
2023-04-26T06:59:47.922Z,10.16
2023-04-26T07:02:18.147Z,9.94
2023-04-26T07:04:45.670Z,10.00
2023-04-26T07:07:16.502Z,10.10
2023-04-26T07:09:44.577Z,10.42
2023-04-26T07:12:12.525Z,10.43
2023-04-26T07:14:43.357Z,10.97
2023-04-26T07:17:13.128Z,11.57
2023-04-26T07:19:42.467Z,11.76
2023-04-26T07:22:12.096Z,12.11
2023-04-26T07:24:38.963Z,11.98
2023-04-26T07:27:05.892Z,11.93
2023-04-26T07:29:37.587Z,11.80
2023-04-26T07:32:05.045Z,11.55
2023-04-26T07:34:32.255Z,11.76
2023-04-26T07:36:59.119Z,11.77
2023-04-26T07:39:28.656Z,11.80
2023-04-26T07:41:55.784Z,11.77
2023-04-26T07:44:22.688Z,11.95
2023-04-26T07:46:52.112Z,11.58
2023-04-26T07:49:19.243Z,11.84
2023-04-26T07:51:49.161Z,12.38
2023-04-26T07:54:16.163Z,12.68
2023-04-26T07:56:45.871Z,12.64
2023-04-26T07:59:15.548Z,12.57
2023-04-26T08:01:42.600Z,12.20
2023-04-26T08:04:09.767Z,12.48
2023-04-26T08:06:39.327Z,12.89
2023-04-26T08:09:06.232Z,13.24
2023-04-26T08:11:35.333Z,13.02
2023-04-26T08:14:04.417Z,13.38
2023-04-26T08:16:31.343Z,13.74
2023-04-26T08:19:02.645Z,14.23
2023-04-26T08:21:29.684Z,14.58
2023-04-26T08:23:56.509Z,14.56
2023-04-26T08:26:25.982Z,14.34
2023-04-26T08:28:52.820Z,14.77
2023-04-26T08:31:22.967Z,14.56
2023-04-26T08:33:50.101Z,13.80
2023-04-26T08:36:17.194Z,14.19
2023-04-26T08:38:46.579Z,13.97
2023-04-26T08:41:16.809Z,14.30
2023-04-26T08:43:44.064Z,14.73
2023-04-26T08:46:16.855Z,14.99
2023-04-26T08:48:43.812Z,14.86
2023-04-26T08:51:14.329Z,14.88
2023-04-26T08:53:41.962Z,14.50
2023-04-26T08:56:11.399Z,13.84
2023-04-26T08:58:41.282Z,14.26
2023-04-26T09:01:09.453Z,14.99
2023-04-26T09:03:39.020Z,15.82
2023-04-26T09:06:12.082Z,15.46
2023-04-26T09:08:44.120Z,15.07
2023-04-26T09:11:10.979Z,14.91
2023-04-26T09:13:40.986Z,15.54
2023-04-26T09:16:08.045Z,16.03
2023-04-26T09:18:35.042Z,16.18
2023-04-26T09:21:09.311Z,15.63
2023-04-26T09:23:36.669Z,14.92
2023-04-26T09:26:22.872Z,14.40
2023-04-26T09:28:50.545Z,14.61
2023-04-26T09:31:41.425Z,14.48
2023-04-26T09:34:12.438Z,14.95
2023-04-26T09:36:56.938Z,15.16
2023-04-26T09:39:37.491Z,15.58
2023-04-26T09:42:11.155Z,14.84
2023-04-26T09:44:40.727Z,14.22
2023-04-26T09:47:12.055Z,14.23
2023-04-26T09:49:51.502Z,13.97
2023-04-26T09:52:23.999Z,13.51
2023-04-26T09:54:53.891Z,13.09
2023-04-26T09:57:22.448Z,13.15
2023-04-26T09:59:56.276Z,13.08
2023-04-26T10:02:26.397Z,12.93
2023-04-26T10:04:56.750Z,13.25
2023-04-26T10:07:28.784Z,13.31
2023-04-26T10:09:58.594Z,13.69
2023-04-26T10:12:27.713Z,14.28
2023-04-26T10:14:57.333Z,14.30
2023-04-26T10:17:24.286Z,14.72
2023-04-26T10:19:58.710Z,14.83
2023-04-26T10:22:33.686Z,15.21
2023-04-26T10:25:01.126Z,15.40
2023-04-26T10:27:43.247Z,16.09
2023-04-26T10:30:19.765Z,16.36
2023-04-26T10:33:13.904Z,17.08
2023-04-26T10:36:11.395Z,16.92
2023-04-26T10:39:18.370Z,15.82
2023-04-26T10:41:45.403Z,16.26
2023-04-26T10:44:41.770Z,16.55
2023-04-26T10:47:31.756Z,16.54
2023-04-26T10:50:11.474Z,17.86
2023-04-26T10:53:02.464Z,18.46
2023-04-26T10:55:43.190Z,18.54
2023-04-26T10:58:34.174Z,17.78
2023-04-26T11:01:21.127Z,16.64
2023-04-26T11:04:00.123Z,15.39
2023-04-26T11:06:47.859Z,14.75
2023-04-26T11:09:50.529Z,14.94
2023-04-26T11:12:22.086Z,15.28
2023-04-26T11:14:51.199Z,14.71
2023-04-26T11:17:18.043Z,14.72
2023-04-26T11:19:47.961Z,14.73
2023-04-26T11:22:16.912Z,14.84
2023-04-26T11:24:46.421Z,15.18
2023-04-26T11:27:13.294Z,16.35
2023-04-26T11:29:43.276Z,17.07
2023-04-26T11:32:10.866Z,17.10
2023-04-26T11:34:44.285Z,16.47
2023-04-26T11:37:11.640Z,15.01
2023-04-26T11:39:38.532Z,14.64
2023-04-26T11:42:10.922Z,14.36
2023-04-26T11:44:40.453Z,14.00
2023-04-26T11:47:08.289Z,13.93
2023-04-26T11:49:39.511Z,13.94
2023-04-26T11:52:08.768Z,13.96
2023-04-26T11:54:37.871Z,14.03
2023-04-26T11:57:18.249Z,13.92
2023-04-26T11:59:47.781Z,13.86
2023-04-26T12:02:19.098Z,13.63
2023-04-26T12:04:48.855Z,13.56
2023-04-26T12:07:19.618Z,13.32
2023-04-26T12:09:46.653Z,13.34
2023-04-26T12:12:16.782Z,13.56
2023-04-26T12:14:45.458Z,14.62
2023-04-26T12:17:15.646Z,15.43
2023-04-26T12:19:49.998Z,16.35
2023-04-26T12:22:22.080Z,16.34
2023-04-26T12:24:51.128Z,16.28
2023-04-26T12:27:26.150Z,16.43
2023-04-26T12:29:52.991Z,15.79
2023-04-26T12:32:22.784Z,14.89
2023-04-26T12:34:49.791Z,15.11
2023-04-26T12:37:21.251Z,14.90
2023-04-26T12:39:52.727Z,14.74
2023-04-26T12:42:21.796Z,14.50
2023-04-26T12:44:51.233Z,14.13
2023-04-26T12:47:18.227Z,14.08
2023-04-26T12:49:48.504Z,14.17
2023-04-26T12:52:15.364Z,13.96
2023-04-26T12:54:44.900Z,14.19
2023-04-26T12:57:11.756Z,14.18
2023-04-26T12:59:41.262Z,14.47
2023-04-26T13:02:10.644Z,14.12
2023-04-26T13:04:41.042Z,14.03
2023-04-26T13:07:08.875Z,13.11
2023-04-26T13:09:38.271Z,12.91
2023-04-26T13:12:05.416Z,13.03
2023-04-26T13:14:34.824Z,12.34
2023-04-26T13:17:01.977Z,12.41
2023-04-26T13:19:29.011Z,12.42
2023-04-26T13:22:01.194Z,12.22
2023-04-26T13:24:28.087Z,11.88
2023-04-26T13:26:55.480Z,12.08
2023-04-26T13:29:22.498Z,12.20
2023-04-26T13:31:49.477Z,12.33
2023-04-26T13:34:16.467Z,12.57
2023-04-26T13:36:43.353Z,12.66
2023-04-26T13:39:12.485Z,13.21
2023-04-26T13:41:41.659Z,13.48
2023-04-26T13:44:08.561Z,14.36
2023-04-26T13:46:38.517Z,13.77
2023-04-26T13:49:08.292Z,13.79
2023-04-26T13:51:37.451Z,14.07
2023-04-26T13:54:07.290Z,14.16
2023-04-26T13:56:36.661Z,14.63
2023-04-26T13:59:07.651Z,15.09
2023-04-26T14:01:40.635Z,15.38
2023-04-26T14:04:11.331Z,15.92
2023-04-26T14:06:38.416Z,16.06
2023-04-26T14:09:08.744Z,15.31
2023-04-26T14:11:36.050Z,14.77
2023-04-26T14:14:02.927Z,14.60
2023-04-26T14:16:29.928Z,14.76
2023-04-26T14:19:01.311Z,14.66
2023-04-26T14:21:28.478Z,14.83
2023-04-26T14:23:56.454Z,14.95
2023-04-26T14:26:28.377Z,15.11
2023-04-26T14:28:57.839Z,15.28
2023-04-26T14:31:26.104Z,15.26
2023-04-26T14:33:56.500Z,15.48
2023-04-26T14:36:23.592Z,15.31
2023-04-26T14:38:50.859Z,15.08
2023-04-26T14:41:19.258Z,15.14
2023-04-26T14:43:50.417Z,14.78
2023-04-26T14:46:17.622Z,14.83
2023-04-26T14:48:47.597Z,14.92
2023-04-26T14:51:14.453Z,14.72
2023-04-26T14:53:41.329Z,14.63
2023-04-26T14:56:10.714Z,14.57
2023-04-26T14:58:37.620Z,14.52
2023-04-26T15:01:04.739Z,14.34
2023-04-26T15:03:32.663Z,14.20
2023-04-26T15:05:59.962Z,14.25
2023-04-26T15:08:27.524Z,14.29
2023-04-26T15:10:54.423Z,14.30
2023-04-26T15:13:21.336Z,14.31
2023-04-26T15:15:48.384Z,14.22
2023-04-26T15:18:15.300Z,14.21
2023-04-26T15:20:42.214Z,14.38
2023-04-26T15:23:09.165Z,14.36
2023-04-26T15:25:38.581Z,14.18
2023-04-26T15:28:05.755Z,14.02
2023-04-26T15:30:32.675Z,13.84
2023-04-26T15:33:00.327Z,13.71
2023-04-26T15:35:27.361Z,13.74
2023-04-26T15:37:56.827Z,13.64
2023-04-26T15:40:27.551Z,13.68
2023-04-26T15:42:56.957Z,13.68
2023-04-26T15:45:23.818Z,13.80
2023-04-26T15:47:55.223Z,14.16
2023-04-26T15:50:22.284Z,14.30
2023-04-26T15:52:49.289Z,14.33
2023-04-26T15:55:16.445Z,14.39
2023-04-26T15:57:46.493Z,14.34
2023-04-26T16:00:14.270Z,14.54
2023-04-26T16:02:44.858Z,14.64
2023-04-26T16:05:14.893Z,14.76
2023-04-26T16:07:41.949Z,14.64
2023-04-26T16:10:12.600Z,14.36
2023-04-26T16:12:43.394Z,14.28
2023-04-26T16:15:14.409Z,14.18
2023-04-26T16:17:41.540Z,14.17
2023-04-26T16:20:10.366Z,14.11
2023-04-26T16:22:39.507Z,14.14
2023-04-26T16:25:09.511Z,14.03
2023-04-26T16:27:36.520Z,14.04
2023-04-26T16:30:06.607Z,13.71
2023-04-26T16:32:34.050Z,13.52
2023-04-26T16:35:01.074Z,13.61
2023-04-26T16:37:28.418Z,13.77
2023-04-26T16:39:58.030Z,13.60
2023-04-26T16:42:24.922Z,13.43
2023-04-26T16:44:52.174Z,13.37
2023-04-26T16:47:21.934Z,13.30
2023-04-26T16:49:48.757Z,13.41
2023-04-26T16:52:16.253Z,13.46
2023-04-26T16:54:46.193Z,13.54
2023-04-26T16:57:13.997Z,13.66
2023-04-26T16:59:40.932Z,13.75
2023-04-26T17:02:07.790Z,13.40
2023-04-26T17:04:34.879Z,13.60
2023-04-26T17:07:07.428Z,13.43
2023-04-26T17:09:35.221Z,13.30
2023-04-26T17:12:07.180Z,13.42
2023-04-26T17:14:34.813Z,13.38
2023-04-26T17:17:02.266Z,13.33
2023-04-26T17:19:29.322Z,13.25
2023-04-26T17:21:56.220Z,13.17
2023-04-26T17:24:23.130Z,12.75
2023-04-26T17:26:50.046Z,12.75
2023-04-26T17:29:16.980Z,12.75
2023-04-26T17:31:44.484Z,12.64
2023-04-26T17:34:11.700Z,12.48
2023-04-26T17:36:40.961Z,12.56
2023-04-26T17:39:09.226Z,12.87
2023-04-26T17:41:38.493Z,12.74
2023-04-26T17:44:07.712Z,12.71
2023-04-26T17:46:34.611Z,12.81
2023-04-26T17:49:07.193Z,12.97
2023-04-26T17:51:34.179Z,12.87
2023-04-26T17:54:04.149Z,12.81
2023-04-26T17:56:31.011Z,12.75
2023-04-26T17:58:57.865Z,12.78
2023-04-26T18:01:24.876Z,12.74
2023-04-26T18:03:56.777Z,12.73
2023-04-26T18:06:26.891Z,12.70
2023-04-26T18:08:54.190Z,12.59
2023-04-26T18:11:22.074Z,12.66
2023-04-26T18:13:49.059Z,12.59
2023-04-26T18:16:18.615Z,12.32
2023-04-26T18:18:50.338Z,12.22
2023-04-26T18:21:17.258Z,12.04
2023-04-26T18:23:45.500Z,11.73
2023-04-26T18:26:12.750Z,11.77
2023-04-26T18:28:44.856Z,11.69
2023-04-26T18:31:14.413Z,11.64
2023-04-26T18:33:41.323Z,11.70
2023-04-26T18:36:10.721Z,11.73
2023-04-26T18:38:37.632Z,11.76
2023-04-26T18:41:07.546Z,11.60
2023-04-26T18:43:36.843Z,11.55
2023-04-26T18:46:03.760Z,11.61
2023-04-26T18:48:33.677Z,11.43
2023-04-26T18:51:01.045Z,11.32
2023-04-26T18:53:30.416Z,11.46
2023-04-26T18:55:59.855Z,11.26
2023-04-26T18:58:31.414Z,11.17
2023-04-26T19:00:58.311Z,10.89
2023-04-26T19:03:26.893Z,10.88
2023-04-26T19:05:54.137Z,10.92
2023-04-26T19:08:21.085Z,11.03
2023-04-26T19:10:47.949Z,11.09
2023-04-26T19:13:19.661Z,11.02
2023-04-26T19:15:49.092Z,11.18
2023-04-26T19:18:17.933Z,11.19
2023-04-26T19:20:45.019Z,11.09
2023-04-26T19:23:12.601Z,11.02
2023-04-26T19:25:44.970Z,11.06
2023-04-26T19:28:11.933Z,10.75
2023-04-26T19:30:41.259Z,10.73
2023-04-26T19:33:08.112Z,10.68
2023-04-26T19:35:34.996Z,10.91
2023-04-26T19:38:06.676Z,10.72
2023-04-26T19:40:33.618Z,10.96
2023-04-26T19:43:00.562Z,11.03
2023-04-26T19:45:29.049Z,11.11
2023-04-26T19:47:58.228Z,10.95
2023-04-26T19:50:25.196Z,11.04
2023-04-26T19:52:52.165Z,10.77
2023-04-26T19:55:22.345Z,10.77
2023-04-26T19:57:49.243Z,10.78
2023-04-26T20:00:18.648Z,10.42
2023-04-26T20:02:45.678Z,10.45
2023-04-26T20:05:15.231Z,10.60
2023-04-26T20:07:46.766Z,10.54
2023-04-26T20:10:15.922Z,10.40
2023-04-26T20:12:42.867Z,10.34
2023-04-26T20:15:12.073Z,10.23
2023-04-26T20:17:42.767Z,10.46
2023-04-26T20:20:12.924Z,10.10
2023-04-26T20:22:40.678Z,10.13
2023-04-26T20:25:10.668Z,10.22
2023-04-26T20:27:39.853Z,10.14
2023-04-26T20:30:10.870Z,10.01
2023-04-26T20:32:37.816Z,9.89
2023-04-26T20:35:08.522Z,9.86
2023-04-26T20:37:37.599Z,9.75
2023-04-26T20:40:08.052Z,9.90
2023-04-26T20:42:38.050Z,9.81
2023-04-26T20:45:05.588Z,9.68
2023-04-26T20:47:32.751Z,9.73
2023-04-26T20:49:59.816Z,9.72
2023-04-26T20:52:27.143Z,9.60
2023-04-26T20:55:07.268Z,9.71
2023-04-26T20:57:34.148Z,9.82
2023-04-26T21:00:01.094Z,9.49
2023-04-26T21:02:28.251Z,9.47
2023-04-26T21:04:55.346Z,9.68
2023-04-26T21:07:24.637Z,9.51
2023-04-26T21:09:53.734Z,9.57
2023-04-26T21:12:20.671Z,9.41
2023-04-26T21:14:47.929Z,9.22
2023-04-26T21:17:15.572Z,9.17
2023-04-26T21:19:47.430Z,9.03
2023-04-26T21:22:16.580Z,8.99
2023-04-26T21:24:43.475Z,9.09
2023-04-26T21:27:12.803Z,9.21
2023-04-26T21:29:39.696Z,9.15
2023-04-26T21:32:06.642Z,9.05
2023-04-26T21:34:33.480Z,9.15
2023-04-26T21:37:05.405Z,8.99
2023-04-26T21:39:32.382Z,8.87
2023-04-26T21:41:59.476Z,8.55
2023-04-26T21:44:26.369Z,8.68
2023-04-26T21:46:53.367Z,8.71
2023-04-26T21:49:20.338Z,8.72
2023-04-26T21:51:47.190Z,8.69
2023-04-26T21:54:16.845Z,8.70
2023-04-26T21:56:43.802Z,8.55
2023-04-26T21:59:17.587Z,8.54
2023-04-26T22:01:44.542Z,8.68
2023-04-26T22:04:11.557Z,8.74
2023-04-26T22:06:38.588Z,8.57
2023-04-26T22:09:09.283Z,8.57
2023-04-26T22:11:38.967Z,8.54
2023-04-26T22:14:08.141Z,8.52
2023-04-26T22:16:35.153Z,8.60
2023-04-26T22:19:01.986Z,8.64
2023-04-26T22:21:29.412Z,8.55
2023-04-26T22:23:56.316Z,8.39
2023-04-26T22:26:26.169Z,8.24
2023-04-26T22:28:53.037Z,7.86
2023-04-26T22:31:20.109Z,8.24
2023-04-26T22:33:49.187Z,8.27
2023-04-26T22:36:16.097Z,8.13
2023-04-26T22:38:42.934Z,8.13
2023-04-26T22:41:09.788Z,7.96
2023-04-26T22:43:36.866Z,7.78
2023-04-26T22:46:06.429Z,8.02
2023-04-26T22:48:35.995Z,7.96
2023-04-26T22:51:05.935Z,8.02
2023-04-26T22:53:32.762Z,8.04
2023-04-26T22:56:01.913Z,8.06
2023-04-26T22:58:29.160Z,7.81
2023-04-26T23:00:58.999Z,7.81
2023-04-26T23:03:28.597Z,7.88
2023-04-26T23:05:58.841Z,7.72
2023-04-26T23:08:25.827Z,7.76
2023-04-26T23:10:52.695Z,7.78
2023-04-26T23:13:19.658Z,7.73
2023-04-26T23:15:49.044Z,7.70
2023-04-26T23:18:18.387Z,7.76
2023-04-26T23:20:47.853Z,7.80
2023-04-26T23:23:14.711Z,7.88
2023-04-26T23:25:42.339Z,7.80
2023-04-26T23:28:11.402Z,7.67
2023-04-26T23:30:38.284Z,7.59
2023-04-26T23:33:05.351Z,7.45
2023-04-26T23:35:35.386Z,7.51
2023-04-26T23:38:04.422Z,7.68
2023-04-26T23:40:37.141Z,7.62
2023-04-26T23:43:06.061Z,7.51
2023-04-26T23:45:37.617Z,7.43
2023-04-26T23:48:06.912Z,7.31
2023-04-26T23:50:35.866Z,7.48
2023-04-26T23:53:02.734Z,7.43
2023-04-26T23:55:29.575Z,7.45
2023-04-26T23:57:58.534Z,7.58
